createdAt,value
2022-12-05T00:01:15.158Z,7.07
2022-12-05T00:04:15.402Z,7.10
2022-12-05T00:09:44.693Z,7.14
2022-12-05T00:12:36.672Z,7.09
2022-12-05T00:15:13.530Z,7.08
2022-12-05T00:18:09.240Z,7.09
2022-12-05T00:20:42.939Z,7.13
2022-12-05T00:25:06.108Z,7.15
2022-12-05T00:26:39.028Z,7.14
2022-12-05T00:29:17.320Z,7.18
2022-12-05T00:32:56.852Z,7.19
2022-12-05T00:38:35.570Z,7.20
2022-12-05T00:41:18.467Z,7.22
2022-12-05T00:43:51.328Z,7.17
2022-12-05T00:46:21.959Z,7.21
2022-12-05T00:48:54.271Z,7.20
2022-12-05T00:51:23.460Z,7.19
2022-12-05T00:53:54.601Z,7.22
2022-12-05T00:56:23.619Z,7.23
2022-12-05T00:58:51.610Z,7.22
2022-12-05T01:01:20.461Z,7.20
2022-12-05T01:03:50.760Z,7.18
2022-12-05T01:06:28.200Z,7.14
2022-12-05T01:08:56.401Z,7.15
2022-12-05T01:11:24.410Z,7.14
2022-12-05T01:13:51.609Z,7.13
2022-12-05T01:16:25.959Z,7.11
2022-12-05T01:18:53.152Z,7.11
2022-12-05T01:21:20.539Z,7.20
2022-12-05T01:23:47.960Z,7.20
2022-12-05T01:26:15.978Z,7.25
2022-12-05T01:28:43.984Z,7.27
2022-12-05T01:31:17.803Z,7.25
2022-12-05T01:33:45.629Z,7.24
2022-12-05T01:36:13.190Z,7.26
2022-12-05T01:38:41.397Z,7.27
2022-12-05T01:41:16.483Z,7.29
2022-12-05T01:43:55.500Z,7.37
2022-12-05T01:46:31.499Z,7.38
2022-12-05T01:49:02.667Z,7.37
2022-12-05T01:51:41.669Z,7.35
2022-12-05T01:54:09.860Z,7.37
2022-12-05T01:56:40.421Z,7.35
2022-12-05T01:59:12.269Z,7.39
2022-12-05T02:02:18.068Z,7.40
2022-12-05T02:04:54.920Z,7.37
2022-12-05T02:07:29.781Z,7.38
2022-12-05T02:09:57.443Z,7.34
2022-12-05T02:12:26.370Z,7.32
2022-12-05T02:15:03.060Z,7.29
2022-12-05T02:17:33.374Z,7.31
2022-12-05T02:20:01.680Z,7.28
2022-12-05T02:22:32.535Z,7.25
2022-12-05T02:25:03.739Z,7.26
2022-12-05T02:27:46.179Z,7.31
2022-12-05T02:30:16.571Z,7.30
2022-12-05T02:32:43.961Z,7.34
2022-12-05T02:35:14.860Z,7.37
2022-12-05T02:37:45.653Z,7.38
2022-12-05T02:40:57.845Z,7.38
2022-12-05T02:43:26.589Z,7.42
2022-12-05T02:45:57.276Z,7.41
2022-12-05T02:48:59.369Z,7.44
2022-12-05T02:51:30.239Z,7.44
2022-12-05T02:54:00.214Z,7.43
2022-12-05T02:56:27.839Z,7.47
2022-12-05T02:58:57.329Z,7.47
2022-12-05T03:01:25.766Z,7.49
2022-12-05T03:03:54.734Z,7.49
2022-12-05T03:06:21.867Z,7.50
2022-12-05T03:08:53.815Z,7.51
2022-12-05T03:11:21.095Z,7.49
2022-12-05T03:14:02.075Z,7.50
2022-12-05T03:16:34.592Z,7.53
2022-12-05T03:19:06.178Z,7.50
2022-12-05T03:21:37.754Z,7.49
2022-12-05T03:24:08.869Z,7.51
2022-12-05T03:26:47.679Z,7.48
2022-12-05T03:29:23.826Z,7.47
2022-12-05T03:32:00.158Z,7.45
2022-12-05T03:34:39.255Z,7.46
2022-12-05T03:37:12.164Z,7.42
2022-12-05T03:39:44.428Z,7.48
2022-12-05T03:42:16.360Z,7.44
2022-12-05T03:44:48.374Z,7.41
2022-12-05T03:47:24.217Z,7.42
2022-12-05T03:49:53.049Z,7.44
2022-12-05T03:52:30.530Z,7.47
2022-12-05T03:55:00.344Z,7.53
2022-12-05T03:57:29.951Z,7.51
2022-12-05T04:00:02.285Z,7.52
2022-12-05T04:02:35.654Z,7.53
2022-12-05T04:05:06.988Z,7.51
2022-12-05T04:07:43.682Z,7.50
2022-12-05T04:10:13.542Z,7.51
2022-12-05T04:12:49.239Z,7.50
2022-12-05T04:15:19.610Z,7.53
2022-12-05T04:17:53.746Z,7.55
2022-12-05T04:20:33.229Z,7.62
2022-12-05T04:23:08.051Z,7.66
2022-12-05T04:28:59.350Z,7.67
2022-12-05T04:31:30.023Z,7.70
2022-12-05T04:34:06.693Z,7.72
2022-12-05T04:36:45.544Z,7.74
2022-12-05T04:42:31.829Z,7.81
2022-12-05T04:45:04.623Z,7.82
2022-12-05T04:47:36.905Z,7.85
2022-12-05T04:50:05.246Z,7.82
2022-12-05T04:52:39.215Z,7.80
2022-12-05T04:55:17.858Z,7.79
2022-12-05T04:57:45.052Z,7.79
2022-12-05T05:00:12.939Z,7.80
2022-12-05T05:02:56.371Z,7.82
2022-12-05T05:05:23.818Z,7.83
2022-12-05T05:07:52.174Z,7.80
2022-12-05T05:10:23.604Z,7.79
2022-12-05T05:12:58.329Z,7.80
2022-12-05T05:15:25.389Z,7.85
2022-12-05T05:18:00.087Z,7.85
2022-12-05T05:20:28.384Z,7.84
2022-12-05T05:22:56.187Z,7.83
2022-12-05T05:25:23.659Z,7.81
2022-12-05T05:27:52.307Z,7.85
2022-12-05T05:30:19.816Z,7.86
2022-12-05T05:32:49.700Z,7.88
2022-12-05T05:35:16.790Z,7.87
2022-12-05T05:37:43.639Z,7.87
2022-12-05T05:40:13.561Z,7.91
2022-12-05T05:42:44.444Z,7.93
2022-12-05T05:45:12.056Z,7.99
2022-12-05T05:47:39.180Z,8.00
2022-12-05T05:50:06.797Z,8.00
2022-12-05T05:52:35.144Z,8.02
2022-12-05T05:55:02.850Z,8.05
2022-12-05T06:00:51.069Z,8.15
2022-12-05T06:03:18.059Z,8.13
2022-12-05T06:05:50.067Z,8.13
2022-12-05T06:08:19.967Z,8.15
2022-12-05T06:11:26.261Z,8.16
2022-12-05T06:13:58.395Z,8.22
2022-12-05T06:16:25.652Z,8.24
2022-12-05T06:18:56.319Z,8.24
2022-12-05T06:21:32.789Z,8.22
2022-12-05T06:24:02.859Z,8.26
2022-12-05T06:26:29.684Z,8.27
2022-12-05T06:29:04.061Z,8.33
2022-12-05T06:31:38.176Z,8.33
2022-12-05T06:34:05.352Z,8.34
2022-12-05T06:36:32.434Z,8.34
2022-12-05T06:39:00.463Z,8.33
2022-12-05T06:41:29.883Z,8.36
2022-12-05T06:47:15.339Z,8.43
2022-12-05T06:49:42.465Z,8.45
2022-12-05T06:52:12.227Z,8.52
2022-12-05T06:54:42.364Z,8.52
2022-12-05T06:57:10.230Z,8.48
2022-12-05T07:00:24.954Z,8.47
2022-12-05T07:02:52.919Z,8.45
2022-12-05T07:05:30.669Z,8.50
2022-12-05T07:07:57.730Z,8.51
2022-12-05T07:10:24.676Z,8.50
2022-12-05T07:12:51.669Z,8.45
2022-12-05T07:15:18.829Z,8.48
2022-12-05T07:17:46.805Z,8.47
2022-12-05T07:20:18.075Z,8.50
2022-12-05T07:22:46.350Z,8.52
2022-12-05T07:25:13.479Z,8.58
2022-12-05T07:27:40.571Z,8.58
2022-12-05T07:30:09.300Z,8.62
2022-12-05T07:32:36.409Z,8.65
2022-12-05T07:35:10.850Z,8.65
2022-12-05T07:37:44.389Z,8.65
2022-12-05T07:40:15.017Z,8.70
2022-12-05T07:42:45.105Z,8.66
2022-12-05T07:51:48.438Z,8.60
2022-12-05T07:54:15.574Z,8.58
2022-12-05T07:56:47.510Z,8.55
2022-12-05T07:59:20.940Z,8.50
2022-12-05T08:01:48.060Z,8.53
2022-12-05T08:04:15.950Z,8.54
2022-12-05T08:06:43.236Z,8.60
2022-12-05T08:09:10.430Z,8.57
2022-12-05T08:11:38.499Z,8.54
2022-12-05T08:14:28.800Z,8.55
2022-12-05T08:20:17.830Z,8.60
2022-12-05T08:22:44.937Z,8.59
2022-12-05T08:25:16.119Z,8.58
2022-12-05T08:28:06.534Z,8.67
2022-12-05T08:34:51.710Z,8.70
2022-12-05T08:37:18.776Z,8.74
2022-12-05T08:39:49.494Z,8.80
2022-12-05T08:42:21.169Z,8.80
2022-12-05T08:44:51.459Z,8.82
2022-12-05T08:47:18.505Z,8.79
2022-12-05T08:49:48.676Z,8.80
2022-12-05T08:52:15.977Z,8.81
2022-12-05T08:54:46.319Z,8.84
2022-12-05T08:57:13.589Z,8.83
2022-12-05T08:59:40.775Z,8.85
2022-12-05T09:02:08.949Z,8.90
2022-12-05T09:04:36.116Z,8.96
2022-12-05T09:07:16.035Z,8.94
2022-12-05T09:09:43.161Z,8.92
2022-12-05T09:12:10.040Z,8.98
2022-12-05T09:14:37.105Z,8.96
2022-12-05T09:17:06.195Z,8.98
2022-12-05T09:19:33.264Z,8.97
2022-12-05T09:22:01.972Z,9.00
2022-12-05T09:24:29.095Z,8.99
2022-12-05T09:26:58.009Z,8.99
2022-12-05T09:29:25.955Z,9.01
2022-12-05T09:31:54.521Z,9.02
2022-12-05T09:34:21.730Z,9.05
2022-12-05T09:37:05.545Z,9.09
2022-12-05T09:39:39.848Z,9.13
2022-12-05T09:42:26.680Z,9.18
2022-12-05T09:45:02.857Z,9.21
2022-12-05T09:47:39.795Z,9.22
2022-12-05T09:50:14.275Z,9.25
2022-12-05T09:52:46.136Z,9.29
2022-12-05T09:55:15.594Z,9.30
2022-12-05T09:57:55.129Z,9.32
2022-12-05T10:00:22.419Z,9.35
2022-12-05T10:02:59.195Z,9.39
2022-12-05T10:05:31.049Z,9.42
2022-12-05T10:08:07.876Z,9.45
2022-12-05T10:10:44.081Z,9.47
2022-12-05T10:13:14.251Z,9.49
2022-12-05T10:15:45.872Z,9.55
2022-12-05T10:18:13.509Z,9.54
2022-12-05T10:20:43.729Z,9.57
2022-12-05T10:23:34.709Z,9.57
2022-12-05T10:26:07.661Z,9.57
2022-12-05T10:28:41.367Z,9.57
2022-12-05T10:31:12.213Z,9.59
2022-12-05T10:33:42.430Z,9.57
2022-12-05T10:36:10.515Z,9.57
2022-12-05T10:38:37.740Z,9.56
2022-12-05T10:41:07.995Z,9.62
2022-12-05T10:43:37.809Z,9.58
2022-12-05T10:46:10.650Z,9.66
2022-12-05T10:48:42.136Z,9.64
2022-12-05T10:51:15.431Z,9.62
2022-12-05T10:53:42.979Z,9.64
2022-12-05T10:56:30.129Z,9.66
2022-12-05T10:58:59.874Z,9.64
2022-12-05T11:01:30.531Z,9.67
2022-12-05T11:04:12.011Z,9.67
2022-12-05T11:06:50.482Z,9.66
2022-12-05T11:09:19.859Z,9.66
2022-12-05T11:11:58.290Z,9.66
2022-12-05T11:14:26.422Z,9.68
2022-12-05T11:16:54.941Z,9.68
2022-12-05T11:19:22.297Z,9.68
2022-12-05T11:21:49.855Z,9.66
2022-12-05T11:24:24.020Z,9.66
2022-12-05T11:26:51.163Z,9.66
2022-12-05T11:29:30.236Z,9.65
2022-12-05T11:32:00.646Z,9.68
2022-12-05T11:34:32.080Z,9.72
2022-12-05T11:37:05.474Z,9.76
2022-12-05T11:39:37.274Z,9.83
2022-12-05T11:42:16.594Z,9.82
2022-12-05T11:45:27.350Z,9.83
2022-12-05T11:47:59.616Z,9.81
2022-12-05T11:50:30.077Z,9.82
2022-12-05T11:52:57.438Z,9.83
2022-12-05T11:55:29.869Z,9.86
2022-12-05T11:58:14.254Z,9.93
2022-12-05T12:00:44.421Z,9.96
2022-12-05T12:03:22.081Z,9.98
2022-12-05T12:06:01.704Z,9.98
2022-12-05T12:08:34.058Z,10.05
2022-12-05T12:11:04.294Z,10.10
2022-12-05T12:13:43.057Z,10.15
2022-12-05T12:16:21.405Z,10.13
2022-12-05T12:18:49.808Z,10.17
2022-12-05T12:24:38.528Z,10.16
2022-12-05T12:27:21.736Z,10.08
2022-12-05T12:30:01.475Z,10.04
2022-12-05T12:32:40.232Z,9.97
2022-12-05T12:35:10.637Z,9.97
2022-12-05T12:37:48.372Z,9.99
2022-12-05T12:40:33.100Z,10.03
2022-12-05T12:43:01.300Z,10.03
2022-12-05T12:45:38.442Z,10.08
2022-12-05T12:48:13.197Z,10.11
2022-12-05T12:50:44.277Z,10.17
2022-12-05T12:53:13.014Z,10.20
2022-12-05T12:55:45.303Z,10.21
2022-12-05T12:58:22.460Z,10.21
2022-12-05T13:00:51.039Z,10.31
2022-12-05T13:03:21.937Z,10.33
2022-12-05T13:05:50.790Z,10.30
2022-12-05T13:08:25.368Z,10.28
2022-12-05T13:10:53.286Z,10.29
2022-12-05T13:13:25.397Z,10.33
2022-12-05T13:15:55.230Z,10.32
2022-12-05T13:18:28.559Z,10.32
2022-12-05T13:20:58.117Z,10.29
2022-12-05T13:23:28.235Z,10.30
2022-12-05T13:25:57.076Z,10.33
2022-12-05T13:28:28.098Z,10.40
2022-12-05T13:31:03.236Z,10.47
2022-12-05T13:33:35.994Z,10.55
2022-12-05T13:36:17.361Z,10.51
2022-12-05T13:38:54.557Z,10.50
2022-12-05T13:41:37.535Z,10.46
2022-12-05T13:44:12.774Z,10.42
2022-12-05T13:46:43.552Z,10.41
2022-12-05T13:49:19.901Z,10.42
2022-12-05T13:51:47.545Z,10.49
2022-12-05T13:54:15.952Z,10.48
2022-12-05T13:56:48.036Z,10.51
2022-12-05T13:59:35.056Z,10.48
2022-12-05T14:02:34.830Z,10.45
2022-12-05T14:05:07.935Z,10.42
2022-12-05T14:07:40.445Z,10.45
2022-12-05T14:10:08.279Z,10.42
2022-12-05T14:12:46.746Z,10.33
2022-12-05T14:15:34.218Z,10.25
2022-12-05T14:18:13.291Z,10.25
2022-12-05T14:20:52.854Z,10.09
2022-12-05T14:23:21.460Z,10.03
2022-12-05T14:25:59.535Z,10.05
2022-12-05T14:28:38.425Z,10.07
2022-12-05T14:31:15.020Z,10.13
2022-12-05T14:33:45.055Z,10.20
2022-12-05T14:36:16.901Z,10.27
2022-12-05T14:38:44.926Z,10.33
2022-12-05T14:41:24.484Z,10.39
2022-12-05T14:43:53.981Z,10.44
2022-12-05T14:46:26.914Z,10.45
2022-12-05T14:48:59.275Z,10.46
2022-12-05T14:51:31.253Z,10.47
2022-12-05T14:57:50.451Z,10.42
2022-12-05T15:00:25.436Z,10.42
2022-12-05T15:02:56.055Z,10.40
2022-12-05T15:29:28.500Z,10.31
2022-12-05T15:31:59.374Z,10.29
2022-12-05T15:34:29.734Z,10.28
2022-12-05T15:37:03.090Z,10.25
2022-12-05T15:39:30.696Z,10.20
2022-12-05T15:41:58.596Z,10.18
2022-12-05T15:44:34.276Z,10.17
2022-12-05T15:47:05.071Z,10.15
2022-12-05T15:49:32.601Z,10.16
2022-12-05T15:52:05.852Z,10.19
2022-12-05T15:54:35.130Z,10.19
2022-12-05T15:57:15.386Z,10.19
2022-12-05T15:59:48.145Z,10.16
2022-12-05T16:02:20.245Z,10.12
2022-12-05T16:04:51.066Z,10.10
2022-12-05T16:07:19.728Z,10.07
2022-12-05T16:09:48.419Z,10.06
2022-12-05T16:12:18.514Z,10.09
2022-12-05T16:14:59.464Z,10.07
2022-12-05T16:17:29.867Z,10.06
2022-12-05T16:20:11.425Z,10.05
2022-12-05T16:22:44.442Z,10.10
2022-12-05T16:25:14.965Z,10.09
2022-12-05T16:27:42.928Z,10.10
2022-12-05T16:30:14.166Z,10.07
2022-12-05T16:32:43.001Z,10.08
2022-12-05T16:35:20.424Z,10.06
2022-12-05T16:37:49.000Z,10.09
2022-12-05T16:40:24.203Z,10.06
2022-12-05T16:43:02.246Z,10.08
2022-12-05T16:45:39.530Z,10.07
2022-12-05T16:48:15.391Z,10.04
2022-12-05T16:50:43.555Z,10.04
2022-12-05T16:53:11.537Z,10.05
2022-12-05T16:55:39.668Z,10.03
2022-12-05T16:58:08.002Z,10.04
2022-12-05T17:00:35.926Z,10.04
2022-12-05T17:03:32.225Z,10.03
2022-12-05T17:05:51.601Z,10.04
2022-12-05T17:08:19.901Z,10.05
2022-12-05T17:10:47.768Z,10.09
2022-12-05T17:13:19.264Z,10.07
2022-12-05T17:15:47.272Z,10.05
2022-12-05T17:18:16.944Z,10.09
2022-12-05T17:20:46.473Z,10.06
2022-12-05T17:23:16.187Z,10.04
2022-12-05T17:25:52.491Z,10.07
2022-12-05T17:28:20.028Z,10.08
2022-12-05T17:30:48.233Z,10.08
2022-12-05T17:33:16.986Z,10.03
2022-12-05T17:35:45.315Z,10.01
2022-12-05T17:38:13.079Z,10.03
2022-12-05T17:40:41.337Z,9.99
2022-12-05T17:43:11.505Z,9.97
2022-12-05T17:45:39.385Z,9.94
2022-12-05T17:48:07.242Z,9.98
2022-12-05T17:50:35.012Z,9.97
2022-12-05T17:53:07.393Z,9.97
2022-12-05T17:55:35.880Z,9.96
2022-12-05T17:58:05.819Z,9.95
2022-12-05T18:00:34.705Z,10.01
2022-12-05T18:03:06.517Z,10.00
2022-12-05T18:05:34.323Z,9.96
2022-12-05T18:08:02.068Z,9.96
2022-12-05T18:10:30.522Z,9.92
2022-12-05T18:12:57.888Z,9.90
2022-12-05T18:15:25.501Z,9.92
2022-12-05T18:17:52.933Z,9.95
2022-12-05T18:20:20.154Z,9.95
2022-12-05T18:22:47.497Z,9.95
2022-12-05T18:25:14.915Z,9.92
2022-12-05T18:27:42.477Z,9.86
2022-12-05T18:30:10.284Z,9.83
2022-12-05T18:32:38.273Z,9.84
2022-12-05T18:35:12.576Z,9.82
2022-12-05T18:37:41.502Z,9.82
2022-12-05T18:40:09.748Z,9.82
2022-12-05T18:42:37.672Z,9.78
2022-12-05T18:45:06.268Z,9.76
2022-12-05T18:47:33.732Z,9.77
2022-12-05T18:50:02.400Z,9.78
2022-12-05T18:52:30.246Z,9.79
2022-12-05T18:55:16.227Z,9.74
2022-12-05T18:57:45.083Z,9.68
2022-12-05T19:00:13.537Z,9.67
2022-12-05T19:02:41.897Z,9.66
2022-12-05T19:05:09.823Z,9.66
2022-12-05T19:07:37.307Z,9.65
2022-12-05T19:10:05.637Z,9.63
2022-12-05T19:12:33.506Z,9.61
2022-12-05T19:15:01.399Z,9.59
2022-12-05T19:17:29.663Z,9.58
2022-12-05T19:19:59.323Z,9.56
2022-12-05T19:22:27.865Z,9.53
2022-12-05T19:24:55.408Z,9.53
2022-12-05T19:27:23.286Z,9.56
2022-12-05T19:29:50.696Z,9.53
2022-12-05T19:32:18.012Z,9.56
2022-12-05T19:34:47.051Z,9.48
2022-12-05T19:37:14.648Z,9.43
2022-12-05T19:39:42.850Z,9.38
2022-12-05T19:42:10.461Z,9.33
2022-12-05T19:44:38.155Z,9.27
2022-12-05T19:47:05.961Z,9.25
2022-12-05T19:49:33.631Z,9.22
2022-12-05T19:52:01.007Z,9.19
2022-12-05T19:54:28.544Z,9.16
2022-12-05T19:56:59.055Z,9.16
2022-12-05T19:59:27.905Z,9.13
2022-12-05T20:01:55.746Z,9.12
2022-12-05T20:04:23.246Z,9.09
2022-12-05T20:06:50.619Z,9.09
2022-12-05T20:09:20.098Z,9.06
2022-12-05T20:11:54.162Z,9.06
2022-12-05T20:14:22.680Z,9.02
2022-12-05T20:16:50.183Z,8.98
2022-12-05T20:19:17.688Z,8.95
2022-12-05T20:21:45.402Z,8.92
2022-12-05T20:24:13.211Z,8.92
2022-12-05T20:26:41.879Z,8.89
2022-12-05T20:29:09.490Z,8.88
2022-12-05T20:31:38.547Z,8.88
2022-12-05T20:34:06.668Z,8.92
2022-12-05T20:36:35.758Z,8.93
2022-12-05T20:39:05.334Z,8.93
2022-12-05T20:41:33.228Z,8.95
2022-12-05T20:44:02.739Z,8.94
2022-12-05T20:46:30.879Z,8.90
2022-12-05T20:49:01.552Z,8.91
2022-12-05T20:51:30.056Z,8.96
2022-12-05T20:53:59.132Z,8.96
2022-12-05T20:56:29.259Z,8.91
2022-12-05T20:58:58.233Z,8.88
2022-12-05T21:01:26.703Z,8.86
2022-12-05T21:03:54.912Z,8.81
2022-12-05T21:06:24.141Z,8.82
2022-12-05T21:08:52.520Z,8.87
2022-12-05T21:11:20.105Z,8.87
2022-12-05T21:13:47.655Z,8.89
2022-12-05T21:16:18.399Z,8.91
2022-12-05T21:18:46.004Z,8.94
2022-12-05T21:21:15.465Z,8.93
2022-12-05T21:23:43.485Z,8.94
2022-12-05T21:26:12.521Z,8.97
2022-12-05T21:28:40.203Z,8.96
2022-12-05T21:31:10.784Z,8.94
2022-12-05T21:33:38.548Z,8.92
2022-12-05T21:36:06.127Z,8.94
2022-12-05T21:38:33.349Z,8.95
2022-12-05T21:41:00.939Z,9.00
2022-12-05T21:43:28.446Z,9.00
2022-12-05T21:45:56.342Z,8.98
2022-12-05T21:48:24.959Z,9.00
2022-12-05T21:50:52.694Z,9.04
2022-12-05T21:53:20.439Z,9.05
2022-12-05T21:55:48.290Z,9.05
2022-12-05T21:58:15.472Z,9.06
2022-12-05T22:00:43.458Z,9.08
2022-12-05T22:03:14.293Z,9.10
2022-12-05T22:05:41.723Z,9.10
2022-12-05T22:08:09.386Z,9.09
2022-12-05T22:10:36.592Z,9.09
2022-12-05T22:13:05.179Z,9.07
2022-12-05T22:15:32.440Z,9.07
2022-12-05T22:17:59.593Z,9.10
2022-12-05T22:20:26.649Z,9.13
2022-12-05T22:22:53.871Z,9.13
2022-12-05T22:25:21.075Z,9.10
2022-12-05T22:27:48.202Z,9.08
2022-12-05T22:30:15.253Z,9.04
2022-12-05T22:32:42.313Z,9.06
2022-12-05T22:35:09.578Z,8.97
2022-12-05T22:37:36.739Z,8.92
2022-12-05T22:40:04.253Z,8.86
2022-12-05T22:42:31.463Z,8.85
2022-12-05T22:44:58.653Z,8.85
2022-12-05T22:47:25.515Z,8.83
2022-12-05T22:49:52.521Z,8.84
2022-12-05T22:52:19.676Z,8.81
2022-12-05T22:54:46.603Z,8.79
2022-12-05T22:57:13.464Z,8.79
2022-12-05T22:59:40.724Z,8.79
2022-12-05T23:02:09.155Z,8.82
2022-12-05T23:04:36.135Z,8.83
2022-12-05T23:07:03.104Z,8.86
2022-12-05T23:09:30.095Z,8.88
2022-12-05T23:11:57.159Z,8.86
2022-12-05T23:14:24.335Z,8.87
2022-12-05T23:16:51.338Z,8.86
2022-12-05T23:19:18.304Z,8.85
2022-12-05T23:21:45.475Z,8.83
2022-12-05T23:24:13.775Z,8.83
2022-12-05T23:26:42.285Z,8.82
2022-12-05T23:29:09.485Z,8.79
2022-12-05T23:31:36.780Z,8.83
2022-12-05T23:34:04.311Z,8.86
2022-12-05T23:36:32.547Z,8.85
2022-12-05T23:39:00.080Z,8.83
2022-12-05T23:41:27.735Z,8.78
2022-12-05T23:43:55.073Z,8.79
2022-12-05T23:46:23.424Z,8.81
2022-12-05T23:48:51.078Z,8.81
2022-12-05T23:51:19.545Z,8.76
2022-12-05T23:53:47.871Z,8.71
2022-12-05T23:56:16.685Z,8.67
2022-12-05T23:58:44.114Z,8.68
